Rechercher aéroport 
image banner adimage banner ad
image banner ad

FYWE - Windhoek/Eros

Situé à Windhoek, Namibia

ICAO - FYWE, IATA - ERS

Données fournies par Airmate  

Information générale

Coordonnées: S22°36'27" E17°4'45"
Élévation : 5575 feet MSL.
 
Voir autres Aéroports à Khomae

Données opérationnelles

Accessible au public
Heure actuelle UTC:
Heure actuelle locale:
Météo
METAR: FYWE 170500Z 18007KT CAVOK 17/11 Q1019
TAF: TAF FYWE 170200Z 1703/1712 16005KT CAVOK
Voir NOTAMs / SUP AIP / TFR affectant cet aéroport [VIEW]
Fréquences de communication: [VIEW]

Pistes:

Identifiant RWYQFULongueur (ft)Largeur (ft)SurfaceLDA (ft)
01351°650698ASP
19171°650698
0976°329798
27256°329798

Coordonnées de l'aéroport

Adresse: Windhoek Namibia

Vue satellite de FYWE